createdAt,value
2018-10-12T00:00:01.774Z,2.57
2018-10-12T00:02:30.503Z,3.20
2018-10-12T00:04:59.255Z,2.13
2018-10-12T00:07:28.700Z,2.50
2018-10-12T00:09:57.501Z,2.53
2018-10-12T00:12:26.190Z,2.63
2018-10-12T00:14:54.945Z,3.03
2018-10-12T00:17:23.668Z,3.00
2018-10-12T00:19:52.421Z,3.40
2018-10-12T00:22:21.254Z,3.17
2018-10-12T00:24:50.142Z,3.67
2018-10-12T00:27:18.811Z,3.83
2018-10-12T00:29:47.568Z,3.90
2018-10-12T00:32:16.508Z,4.23
2018-10-12T00:34:45.169Z,4.27
2018-10-12T00:37:13.886Z,4.27
2018-10-12T00:39:42.643Z,4.53
2018-10-12T00:42:11.468Z,4.43
2018-10-12T00:44:40.226Z,4.07
2018-10-12T00:47:08.910Z,4.00
2018-10-12T00:49:37.520Z,4.43
2018-10-12T00:52:06.305Z,4.50
2018-10-12T00:54:34.972Z,4.30
2018-10-12T00:57:03.688Z,4.80
2018-10-12T00:59:32.390Z,4.30
2018-10-12T01:02:01.102Z,3.63
2018-10-12T01:04:29.800Z,4.10
2018-10-12T01:06:58.553Z,3.47
2018-10-12T01:09:27.244Z,3.47
2018-10-12T01:12:07.200Z,3.33
2018-10-12T01:14:35.934Z,3.73
2018-10-12T01:17:04.645Z,3.57
2018-10-12T01:19:33.292Z,3.83
2018-10-12T01:22:02.020Z,3.70
2018-10-12T01:24:30.678Z,3.83
2018-10-12T01:26:59.468Z,3.50
2018-10-12T01:29:28.093Z,3.63
2018-10-12T01:31:57.901Z,3.90
2018-10-12T01:34:26.565Z,3.97
2018-10-12T01:36:55.335Z,3.67
2018-10-12T01:39:24.062Z,3.80
2018-10-12T01:41:52.810Z,3.70
2018-10-12T01:44:21.515Z,6.13
2018-10-12T01:46:50.196Z,6.30
2018-10-12T01:49:18.884Z,7.83
2018-10-12T01:51:47.691Z,9.37
2018-10-12T01:54:16.522Z,4.27
2018-10-12T01:56:45.323Z,3.10
2018-10-12T01:59:14.061Z,2.97
2018-10-12T02:01:42.797Z,3.20
2018-10-12T02:04:11.503Z,2.60
2018-10-12T02:06:40.232Z,2.93
2018-10-12T02:09:08.952Z,2.50
2018-10-12T02:11:37.994Z,2.70
2018-10-12T02:14:06.763Z,2.60
2018-10-12T02:16:35.498Z,2.60
2018-10-12T02:19:04.155Z,2.87
2018-10-12T02:21:33.051Z,3.07
2018-10-12T02:24:02.139Z,3.00
2018-10-12T02:26:30.951Z,2.67
2018-10-12T02:29:00.101Z,2.30
2018-10-12T02:31:28.773Z,3.07
2018-10-12T02:33:57.644Z,2.77
2018-10-12T02:36:26.303Z,2.47
2018-10-12T02:38:54.939Z,2.47
2018-10-12T02:41:23.659Z,2.27
2018-10-12T02:43:52.346Z,2.83
2018-10-12T02:46:20.992Z,2.70
2018-10-12T02:48:49.755Z,2.30
2018-10-12T02:51:18.537Z,2.47
2018-10-12T02:53:47.207Z,2.23
2018-10-12T02:56:21.311Z,2.07
2018-10-12T02:58:51.228Z,2.40
2018-10-12T03:01:20.822Z,2.17
2018-10-12T03:03:50.055Z,2.83
2018-10-12T03:06:18.852Z,2.40
2018-10-12T03:08:47.851Z,2.33
2018-10-12T03:11:16.958Z,2.80
2018-10-12T03:13:45.651Z,2.17
2018-10-12T03:16:14.847Z,2.57
2018-10-12T03:18:43.767Z,2.70
2018-10-12T03:21:12.626Z,2.40
2018-10-12T03:23:41.443Z,2.50
2018-10-12T03:26:10.219Z,2.70
2018-10-12T03:28:38.959Z,2.97
2018-10-12T03:31:08.055Z,2.70
2018-10-12T03:33:37.186Z,3.20
2018-10-12T03:36:06.549Z,2.83
2018-10-12T03:38:35.249Z,3.00
2018-10-12T03:41:04.007Z,2.80
2018-10-12T03:43:32.744Z,3.17
2018-10-12T03:46:01.476Z,3.27
2018-10-12T03:48:30.159Z,3.10
2018-10-12T03:50:58.920Z,2.87
2018-10-12T03:53:27.626Z,3.07
2018-10-12T03:55:56.311Z,2.90
2018-10-12T03:58:24.999Z,2.70
2018-10-12T04:00:53.896Z,3.00
2018-10-12T04:03:22.713Z,2.63
2018-10-12T04:05:51.465Z,2.63
2018-10-12T04:08:20.185Z,2.83
2018-10-12T04:10:49.074Z,2.90
2018-10-12T04:13:17.835Z,3.27
2018-10-12T04:15:46.601Z,3.13
2018-10-12T04:18:15.395Z,3.10
2018-10-12T04:20:44.198Z,3.13
2018-10-12T04:23:12.837Z,3.30
2018-10-12T04:25:41.569Z,3.10
2018-10-12T04:28:10.288Z,3.30
2018-10-12T04:30:39.047Z,3.27
2018-10-12T04:33:08.138Z,3.37
2018-10-12T04:35:36.953Z,3.10
2018-10-12T04:38:05.826Z,3.17
2018-10-12T04:41:26.652Z,3.50
2018-10-12T04:43:57.557Z,3.60
2018-10-12T04:46:34.227Z,3.20
2018-10-12T04:49:03.929Z,3.30
2018-10-12T04:51:41.460Z,3.10
2018-10-12T04:54:10.621Z,2.73
2018-10-12T04:56:39.392Z,2.80
2018-10-12T04:59:08.102Z,3.73
2018-10-12T05:01:36.780Z,3.53
2018-10-12T05:04:05.568Z,3.67
2018-10-12T05:06:34.279Z,3.63
2018-10-12T05:09:03.363Z,3.30
2018-10-12T05:11:32.121Z,3.30
2018-10-12T05:14:00.886Z,3.47
2018-10-12T05:16:29.586Z,3.40
2018-10-12T05:18:58.292Z,3.13
2018-10-12T05:21:27.114Z,3.70
2018-10-12T05:23:55.772Z,3.40
2018-10-12T05:26:24.495Z,2.93
2018-10-12T05:28:53.412Z,3.47
2018-10-12T05:31:22.377Z,3.63
2018-10-12T05:33:51.104Z,3.80
2018-10-12T05:36:20.807Z,3.80
2018-10-12T05:38:50.195Z,4.10
2018-10-12T05:41:19.289Z,4.00
2018-10-12T05:43:48.063Z,3.97
2018-10-12T05:46:16.820Z,4.80
2018-10-12T05:48:56.616Z,4.83
2018-10-12T05:51:25.438Z,4.90
2018-10-12T05:53:54.241Z,4.37
2018-10-12T05:56:25.216Z,4.20
2018-10-12T05:58:54.197Z,4.50
2018-10-12T06:01:23.059Z,5.17
2018-10-12T06:03:51.777Z,5.00
2018-10-12T06:06:20.613Z,4.93
2018-10-12T06:08:49.342Z,5.17
2018-10-12T06:11:18.179Z,4.93
2018-10-12T06:13:47.496Z,4.87
2018-10-12T06:16:16.200Z,5.20
2018-10-12T06:18:44.972Z,4.60
2018-10-12T06:21:13.779Z,4.60
2018-10-12T06:23:42.595Z,5.37
2018-10-12T06:26:11.516Z,5.37
2018-10-12T06:28:40.283Z,6.30
2018-10-12T06:31:09.553Z,5.90
2018-10-12T06:33:38.212Z,5.93
2018-10-12T06:36:07.191Z,6.90
2018-10-12T06:38:45.190Z,6.10
2018-10-12T06:41:13.957Z,5.93
2018-10-12T06:43:42.600Z,5.97
2018-10-12T06:46:11.482Z,6.00
2018-10-12T06:48:40.171Z,5.60
2018-10-12T06:51:09.231Z,5.17
2018-10-12T06:53:38.043Z,5.60
2018-10-12T06:56:06.730Z,5.67
2018-10-12T06:58:35.485Z,5.57
2018-10-12T07:01:04.327Z,5.17
2018-10-12T07:03:33.032Z,5.00
2018-10-12T07:06:01.926Z,4.60
2018-10-12T07:08:30.766Z,4.80
2018-10-12T07:10:59.592Z,5.17
2018-10-12T07:13:28.293Z,4.37
2018-10-12T07:15:57.052Z,4.70
2018-10-12T07:18:26.171Z,4.57
2018-10-12T07:20:54.932Z,5.13
2018-10-12T07:23:23.755Z,5.10
2018-10-12T07:25:52.526Z,4.53
2018-10-12T07:28:21.328Z,6.33
2018-10-12T07:30:51.125Z,5.63
2018-10-12T07:33:19.854Z,6.03
2018-10-12T07:35:48.740Z,5.70
2018-10-12T07:38:17.440Z,6.33
2018-10-12T07:40:46.364Z,5.00
2018-10-12T07:43:15.186Z,5.57
2018-10-12T07:45:43.886Z,5.60
2018-10-12T07:48:13.650Z,6.30
2018-10-12T07:50:42.324Z,5.20
2018-10-12T07:53:12.445Z,5.80
2018-10-12T07:55:41.172Z,6.47
2018-10-12T07:58:09.819Z,5.03
2018-10-12T08:00:38.599Z,5.33
2018-10-12T08:03:07.399Z,5.70
2018-10-12T08:05:36.236Z,5.90
2018-10-12T08:08:04.994Z,5.37
2018-10-12T08:10:33.922Z,5.63
2018-10-12T08:13:02.633Z,5.30
2018-10-12T08:15:31.505Z,5.30
2018-10-12T08:18:00.215Z,6.57
2018-10-12T08:20:29.142Z,6.23
2018-10-12T08:22:58.170Z,5.53
2018-10-12T08:25:26.870Z,4.70
2018-10-12T08:27:56.304Z,4.90
2018-10-12T08:30:25.095Z,3.90
2018-10-12T08:32:53.880Z,5.30
2018-10-12T08:35:22.587Z,4.37
2018-10-12T08:37:51.503Z,7.90
2018-10-12T08:40:20.308Z,4.50
2018-10-12T08:42:49.425Z,4.40
2018-10-12T08:45:18.248Z,2.67
2018-10-12T08:47:46.968Z,3.40
2018-10-12T08:50:15.669Z,3.93
2018-10-12T08:52:44.448Z,5.20
2018-10-12T08:55:13.125Z,4.57
2018-10-12T08:57:41.972Z,6.67
2018-10-12T09:00:10.668Z,4.30
2018-10-12T09:02:40.181Z,3.37
2018-10-12T09:05:08.920Z,4.10
2018-10-12T09:07:37.791Z,5.53
2018-10-12T09:10:06.972Z,6.57
2018-10-12T09:12:36.148Z,6.20
2018-10-12T09:15:04.944Z,4.97
2018-10-12T09:17:33.928Z,4.83
2018-10-12T09:20:02.716Z,5.93
2018-10-12T09:22:31.452Z,4.70
2018-10-12T09:25:00.320Z,5.67
2018-10-12T09:27:29.105Z,4.97
2018-10-12T09:29:58.106Z,6.80
2018-10-12T09:32:26.989Z,6.80
2018-10-12T09:34:55.687Z,4.93
2018-10-12T09:37:25.717Z,6.63
2018-10-12T09:39:54.474Z,7.97
2018-10-12T09:42:23.635Z,5.30
2018-10-12T09:44:53.421Z,5.70
2018-10-12T09:47:22.384Z,5.57
2018-10-12T09:49:51.374Z,5.83
2018-10-12T09:52:20.090Z,4.93
2018-10-12T09:54:48.871Z,7.30
2018-10-12T09:57:22.810Z,5.33
2018-10-12T09:59:51.554Z,4.90
2018-10-12T10:03:26.200Z,5.93
2018-10-12T10:05:54.984Z,3.50
2018-10-12T10:08:23.827Z,3.90
2018-10-12T10:10:52.446Z,3.23
2018-10-12T10:13:21.351Z,3.50
2018-10-12T10:15:50.072Z,3.40
2018-10-12T10:18:18.835Z,3.10
2018-10-12T10:20:47.594Z,3.33
2018-10-12T10:23:16.336Z,3.40
2018-10-12T10:25:45.120Z,3.00
2018-10-12T10:28:14.081Z,3.27
2018-10-12T10:30:42.975Z,2.83
2018-10-12T10:33:11.842Z,3.20
2018-10-12T10:35:40.519Z,3.10
2018-10-12T10:38:09.364Z,2.87
2018-10-12T10:40:38.292Z,2.70
2018-10-12T10:43:07.232Z,2.60
2018-10-12T10:45:35.939Z,2.20
2018-10-12T10:48:04.807Z,2.77
2018-10-12T10:50:33.729Z,2.40
2018-10-12T10:53:02.650Z,2.30
2018-10-12T10:55:31.484Z,2.27
2018-10-12T10:58:00.296Z,2.33
2018-10-12T11:00:29.697Z,2.40
2018-10-12T11:02:58.487Z,2.30
2018-10-12T11:05:27.302Z,2.40
2018-10-12T11:07:56.083Z,2.47
2018-10-12T11:10:24.851Z,2.37
2018-10-12T11:12:53.944Z,2.27
2018-10-12T11:15:22.772Z,2.57
2018-10-12T11:17:51.559Z,2.67
2018-10-12T11:20:20.291Z,2.50
2018-10-12T11:22:49.131Z,2.20
2018-10-12T11:25:18.007Z,2.80
2018-10-12T11:27:46.968Z,3.23
2018-10-12T11:30:15.773Z,2.70
2018-10-12T11:32:45.421Z,2.00
2018-10-12T11:35:15.385Z,2.33
2018-10-12T11:37:45.243Z,2.30
2018-10-12T11:40:15.228Z,2.30
2018-10-12T11:42:55.303Z,2.27
2018-10-12T11:45:24.297Z,2.20
2018-10-12T11:47:53.370Z,2.07
2018-10-12T11:50:22.417Z,2.50
2018-10-12T11:52:51.389Z,2.50
2018-10-12T11:55:20.086Z,2.20
2018-10-12T11:57:49.036Z,2.07
2018-10-12T12:00:17.881Z,2.40
2018-10-12T12:02:47.467Z,2.30
2018-10-12T12:05:16.261Z,2.20
2018-10-12T12:07:45.250Z,2.10
2018-10-12T12:10:14.023Z,2.00
2018-10-12T12:12:42.794Z,2.27
2018-10-12T12:15:11.491Z,2.20
2018-10-12T12:17:40.234Z,2.40
2018-10-12T12:20:09.680Z,2.50
2018-10-12T12:22:39.163Z,2.10
2018-10-12T12:25:08.508Z,2.40
2018-10-12T12:27:37.430Z,2.23
2018-10-12T12:30:06.300Z,1.97
2018-10-12T12:32:35.329Z,1.70
2018-10-12T12:35:04.321Z,1.97
2018-10-12T12:37:32.939Z,1.90
2018-10-12T12:40:01.803Z,1.83
2018-10-12T12:42:30.765Z,1.60
2018-10-12T12:44:59.611Z,1.60
2018-10-12T12:47:29.275Z,1.53
2018-10-12T12:49:58.234Z,1.70
2018-10-12T12:52:27.153Z,1.67
2018-10-12T12:54:56.021Z,1.80
2018-10-12T12:57:24.734Z,1.53
2018-10-12T12:59:53.505Z,1.73
2018-10-12T13:02:22.774Z,1.50
2018-10-12T13:04:51.654Z,1.40
2018-10-12T13:07:20.396Z,1.47
2018-10-12T13:09:49.337Z,1.33
2018-10-12T13:12:18.581Z,1.80
2018-10-12T13:14:47.539Z,1.53
2018-10-12T13:17:16.595Z,1.60
2018-10-12T13:19:45.822Z,1.43
2018-10-12T13:22:14.680Z,1.20
2018-10-12T13:24:43.638Z,1.30
2018-10-12T13:27:12.459Z,1.40
2018-10-12T13:29:41.222Z,1.60
2018-10-12T13:32:10.174Z,2.33
2018-10-12T13:34:39.230Z,1.70
2018-10-12T13:37:08.031Z,1.47
2018-10-12T13:39:36.841Z,1.47
2018-10-12T13:42:05.675Z,1.67
2018-10-12T13:44:34.424Z,1.50
2018-10-12T13:47:03.195Z,1.47
2018-10-12T13:49:31.947Z,1.97
2018-10-12T13:52:01.416Z,1.77
2018-10-12T13:54:30.558Z,1.80
2018-10-12T13:57:00.379Z,1.57
2018-10-12T13:59:32.133Z,1.57
2018-10-12T14:02:07.944Z,1.50
2018-10-12T14:04:36.965Z,1.80
2018-10-12T14:07:05.905Z,1.60
2018-10-12T14:09:35.545Z,1.50
2018-10-12T14:12:04.374Z,1.73
2018-10-12T14:14:33.404Z,1.67
2018-10-12T14:17:02.182Z,1.90
2018-10-12T14:19:30.974Z,1.77
2018-10-12T14:21:59.829Z,2.03
2018-10-12T14:24:29.526Z,1.93
2018-10-12T14:26:58.387Z,1.90
2018-10-12T14:29:28.181Z,2.30
2018-10-12T14:31:58.253Z,1.70
2018-10-12T14:34:27.542Z,1.97
2018-10-12T14:36:56.239Z,1.80
2018-10-12T14:39:25.017Z,2.00
2018-10-12T14:41:53.845Z,2.17
2018-10-12T14:44:22.717Z,2.00
2018-10-12T14:46:51.458Z,2.20
2018-10-12T14:49:20.302Z,2.07
2018-10-12T14:51:49.180Z,1.90
2018-10-12T14:54:18.012Z,1.70
2018-10-12T14:56:49.058Z,1.90
2018-10-12T14:59:17.889Z,1.97
2018-10-12T15:01:47.622Z,2.03
2018-10-12T15:04:17.169Z,2.20
2018-10-12T15:06:46.228Z,1.83
2018-10-12T15:09:15.244Z,2.40
2018-10-12T15:11:44.035Z,2.00
2018-10-12T15:14:12.887Z,2.10
2018-10-12T15:16:41.751Z,1.90
2018-10-12T15:19:12.295Z,2.80
2018-10-12T15:21:41.239Z,1.70
2018-10-12T15:24:10.124Z,1.67
2018-10-12T15:26:38.969Z,1.90
2018-10-12T15:29:09.016Z,2.07
2018-10-12T15:31:40.990Z,2.80
2018-10-12T15:34:10.366Z,2.33
2018-10-12T15:36:39.144Z,2.43
2018-10-12T15:39:08.264Z,2.90
2018-10-12T15:41:37.065Z,2.67
2018-10-12T15:44:06.039Z,2.17
2018-10-12T15:46:34.879Z,2.80
2018-10-12T15:49:03.645Z,2.20
2018-10-12T15:51:32.619Z,2.30
2018-10-12T15:54:01.394Z,3.50
2018-10-12T15:56:30.306Z,4.03
2018-10-12T15:58:59.331Z,2.33
2018-10-12T16:01:28.134Z,2.90
2018-10-12T16:03:56.981Z,2.67
2018-10-12T16:06:25.998Z,2.50
2018-10-12T16:08:54.643Z,2.60
2018-10-12T16:11:23.532Z,2.83
2018-10-12T16:13:52.392Z,2.70
2018-10-12T16:16:21.167Z,2.57
2018-10-12T16:18:50.019Z,2.60
2018-10-12T16:21:18.764Z,2.83
2018-10-12T16:23:50.773Z,2.50
2018-10-12T16:26:22.470Z,2.67
2018-10-12T16:28:51.321Z,2.53
2018-10-12T16:31:20.192Z,2.97
2018-10-12T16:33:49.043Z,2.50
2018-10-12T16:36:17.830Z,2.60
2018-10-12T16:38:46.579Z,2.90
2018-10-12T16:41:15.420Z,2.90
2018-10-12T16:43:44.074Z,2.90
2018-10-12T16:46:12.822Z,2.63
2018-10-12T16:48:41.539Z,2.40
2018-10-12T16:51:10.988Z,3.10
2018-10-12T16:53:39.659Z,3.33
2018-10-12T16:56:08.472Z,3.50
2018-10-12T16:58:38.671Z,3.50
2018-10-12T17:01:08.052Z,3.60
2018-10-12T17:03:36.868Z,3.80
2018-10-12T17:06:05.731Z,3.43
2018-10-12T17:08:34.695Z,4.10
2018-10-12T17:11:03.585Z,3.70
2018-10-12T17:13:32.289Z,3.37
2018-10-12T17:16:01.077Z,4.30
2018-10-12T17:18:29.765Z,3.87
2018-10-12T17:20:58.557Z,4.40
2018-10-12T17:23:27.275Z,4.27
2018-10-12T17:25:55.991Z,4.70
2018-10-12T17:28:24.820Z,3.97
2018-10-12T17:30:53.533Z,4.07
2018-10-12T17:33:22.327Z,4.50
2018-10-12T17:35:51.310Z,4.60
2018-10-12T17:38:19.996Z,4.47
2018-10-12T17:40:49.085Z,5.00
2018-10-12T17:43:17.902Z,4.47
2018-10-12T17:45:46.726Z,5.07
2018-10-12T17:48:15.608Z,4.77
2018-10-12T17:50:44.473Z,5.13
2018-10-12T17:53:13.265Z,5.07
2018-10-12T17:55:42.072Z,4.40
2018-10-12T17:58:11.625Z,5.00
2018-10-12T18:00:41.457Z,5.10
2018-10-12T18:03:10.163Z,4.80
2018-10-12T18:05:39.003Z,5.33
2018-10-12T18:08:07.744Z,4.73
2018-10-12T18:10:36.564Z,5.00
2018-10-12T18:13:06.023Z,4.73
2018-10-12T18:15:34.748Z,5.10
2018-10-12T18:18:03.489Z,4.87
2018-10-12T18:20:32.989Z,5.37
2018-10-12T18:23:02.253Z,4.90
2018-10-12T18:25:31.045Z,5.53
2018-10-12T18:27:59.765Z,4.90
2018-10-12T18:30:28.507Z,5.10
2018-10-12T18:32:57.276Z,5.10
2018-10-12T18:35:26.324Z,5.40
2018-10-12T18:37:55.475Z,4.87
2018-10-12T18:40:24.297Z,4.77
2018-10-12T18:42:53.113Z,5.03
2018-10-12T18:45:22.608Z,5.13
2018-10-12T18:47:51.373Z,5.13
2018-10-12T18:50:20.363Z,5.10
2018-10-12T18:52:49.238Z,5.00
2018-10-12T18:55:18.248Z,4.50
2018-10-12T18:57:47.081Z,5.10
2018-10-12T19:00:15.780Z,5.00
2018-10-12T19:02:44.645Z,5.00
2018-10-12T19:05:13.445Z,4.77
2018-10-12T19:07:42.266Z,4.63
2018-10-12T19:10:11.039Z,5.40
2018-10-12T19:12:39.784Z,5.27
2018-10-12T19:15:08.563Z,4.80
2018-10-12T19:17:37.235Z,5.20
2018-10-12T19:20:05.963Z,4.73
2018-10-12T19:22:34.716Z,4.63
2018-10-12T19:25:03.383Z,4.80
2018-10-12T19:27:32.842Z,5.30
2018-10-12T19:30:01.766Z,4.73
2018-10-12T19:32:32.280Z,5.13
2018-10-12T19:35:01.405Z,4.80
2018-10-12T19:37:30.812Z,5.43
2018-10-12T19:40:01.942Z,4.80
2018-10-12T19:42:30.744Z,5.10
2018-10-12T19:45:02.294Z,4.77
2018-10-12T19:47:31.463Z,4.70
2018-10-12T19:50:00.289Z,5.07
2018-10-12T19:52:29.269Z,5.13
2018-10-12T19:54:57.969Z,4.97
2018-10-12T19:57:26.760Z,5.33
2018-10-12T19:59:55.588Z,4.87
2018-10-12T20:02:28.849Z,5.30
2018-10-12T20:04:59.177Z,4.50
2018-10-12T20:07:28.447Z,4.40
2018-10-12T20:10:01.372Z,4.00
2018-10-12T20:12:30.571Z,3.90
2018-10-12T20:14:59.354Z,4.33
2018-10-12T20:17:28.134Z,4.47
2018-10-12T20:19:56.948Z,4.07
2018-10-12T20:22:25.837Z,3.90
2018-10-12T20:24:54.824Z,4.20
2018-10-12T20:27:23.709Z,3.60
2018-10-12T20:29:52.502Z,3.97
2018-10-12T20:32:22.207Z,3.87
2018-10-12T20:34:51.159Z,4.20
2018-10-12T20:37:20.144Z,4.10
2018-10-12T20:39:50.164Z,4.80
2018-10-12T20:42:19.115Z,4.00
2018-10-12T20:44:48.019Z,4.30
2018-10-12T20:47:16.832Z,4.00
2018-10-12T20:49:45.665Z,4.10
2018-10-12T20:52:14.607Z,4.40
2018-10-12T20:54:43.442Z,4.77
2018-10-12T20:57:12.484Z,3.77
2018-10-12T20:59:41.235Z,4.43
2018-10-12T21:02:10.251Z,3.90
2018-10-12T21:04:39.463Z,4.33
2018-10-12T21:07:08.546Z,4.60
2018-10-12T21:09:37.279Z,4.07
2018-10-12T21:12:07.772Z,4.00
2018-10-12T21:14:36.615Z,4.77
2018-10-12T21:17:06.371Z,3.90
2018-10-12T21:19:35.168Z,4.30
2018-10-12T21:22:04.121Z,4.20
2018-10-12T21:24:32.985Z,4.43
2018-10-12T21:27:01.759Z,4.30
2018-10-12T21:29:30.524Z,4.13
2018-10-12T21:31:59.405Z,4.33
2018-10-12T21:34:28.212Z,4.63
2018-10-12T21:36:56.968Z,4.50
2018-10-12T21:39:25.771Z,4.40
2018-10-12T21:41:55.679Z,4.47
2018-10-12T21:44:24.519Z,4.10
2018-10-12T21:46:54.279Z,4.67
2018-10-12T21:49:23.044Z,4.50
2018-10-12T21:51:51.852Z,4.77
2018-10-12T21:54:20.608Z,4.87
2018-10-12T21:56:49.536Z,4.80
2018-10-12T21:59:18.268Z,4.67
2018-10-12T22:01:47.063Z,4.50
2018-10-12T22:04:15.849Z,4.80
2018-10-12T22:06:44.749Z,4.63
2018-10-12T22:09:13.397Z,4.60
2018-10-12T22:11:42.216Z,4.50
2018-10-12T22:14:10.946Z,4.83
2018-10-12T22:16:39.596Z,4.53
2018-10-12T22:19:08.390Z,4.83
2018-10-12T22:21:37.159Z,4.50
2018-10-12T22:24:05.883Z,5.20
2018-10-12T22:26:34.640Z,4.80
2018-10-12T22:29:03.291Z,4.90
2018-10-12T22:31:32.172Z,4.53
2018-10-12T22:34:00.867Z,4.80
2018-10-12T22:36:29.616Z,4.70
2018-10-12T22:38:58.295Z,3.93
2018-10-12T22:41:27.006Z,4.30
2018-10-12T22:43:55.663Z,4.67
2018-10-12T22:46:24.326Z,4.30
2018-10-12T22:48:53.006Z,4.60
2018-10-12T22:51:21.794Z,4.53
2018-10-12T22:53:51.255Z,5.13
2018-10-12T22:56:20.147Z,5.23
2018-10-12T22:58:48.813Z,5.07
2018-10-12T23:01:17.898Z,4.63
2018-10-12T23:03:46.619Z,4.73
2018-10-12T23:06:15.380Z,4.83
2018-10-12T23:08:44.060Z,5.30
2018-10-12T23:11:12.761Z,4.57
2018-10-12T23:13:41.446Z,5.43
2018-10-12T23:16:10.461Z,4.60
2018-10-12T23:18:39.263Z,5.00
2018-10-12T23:21:08.007Z,4.97
2018-10-12T23:23:36.976Z,4.60
2018-10-12T23:26:05.666Z,5.03
2018-10-12T23:28:34.379Z,4.77
2018-10-12T23:31:03.115Z,5.00
2018-10-12T23:33:43.112Z,4.47
2018-10-12T23:36:11.785Z,4.73
2018-10-12T23:38:40.487Z,5.20
2018-10-12T23:41:09.356Z,5.10
2018-10-12T23:43:38.143Z,4.83
2018-10-12T23:46:06.880Z,5.50
2018-10-12T23:48:35.597Z,4.67
2018-10-12T23:51:04.328Z,5.10
2018-10-12T23:53:33.090Z,4.93
2018-10-12T23:56:02.022Z,5.03
2018-10-12T23:58:30.753Z,5.07
